SLYI weather

Yapacani Airport
Ichilo, Santa Cruz Department, Bolivia

Public forecast

Using degrees Celsius for public forecast. Weather courtesy of forecast.io.

METAR (pilot weather report)

Closest report is Viru Viru International Airport, 64.9 nm (120.2 km) SE. Retrieved 2019/03/23 08:00 UTC (33 minutes ago):

SLVR 230800Z 19008KT 9999 BKN025 OVC070 22/19 Q1016

TAF (pilot weather forecast)

Forecast is more than 12 hours old.

Closest forecast is Viru Viru International Airport, 64.9 nm (120.2 km) SE. Retrieved 2019/03/22 18:12 UTC (14 hours ago):

TAF SLVR 221600Z 2218/2318 18010KT 9999 BKN023 BKN070 TX26/2220Z TN19/2311Z BECMG 2223/2301 VRB02KT SCT025 TEMPO 2311/2314 18015KT BKN023 BKN070